createdAt,value
2018-03-27T00:02:16.431Z,12.90
2018-03-27T00:04:43.936Z,12.07
2018-03-27T00:07:11.439Z,13.10
2018-03-27T00:09:38.953Z,12.43
2018-03-27T00:12:06.473Z,15.13
2018-03-27T00:14:34.027Z,12.37
2018-03-27T00:17:02.300Z,13.40
2018-03-27T00:19:30.760Z,14.03
2018-03-27T00:21:58.300Z,11.93
2018-03-27T00:24:25.795Z,11.40
2018-03-27T00:27:00.950Z,13.53
2018-03-27T00:29:40.231Z,13.23
2018-03-27T00:32:19.545Z,14.80
2018-03-27T00:34:59.083Z,14.13
2018-03-27T00:37:38.506Z,13.90
2018-03-27T00:40:17.912Z,13.00
2018-03-27T00:42:52.133Z,14.50
2018-03-27T00:45:19.643Z,13.30
2018-03-27T00:47:47.290Z,11.00
2018-03-27T00:50:14.816Z,13.17
2018-03-27T00:52:43.084Z,13.30
2018-03-27T00:55:11.399Z,13.43
2018-03-27T00:57:38.914Z,13.60
2018-03-27T01:00:06.499Z,10.07
2018-03-27T01:02:34.792Z,9.60
2018-03-27T01:05:08.092Z,10.13
2018-03-27T01:07:35.616Z,11.13
2018-03-27T01:10:03.893Z,10.83
2018-03-27T01:12:32.207Z,10.67
2018-03-27T01:14:59.963Z,13.87
2018-03-27T01:17:27.473Z,9.97
2018-03-27T01:19:55.049Z,9.20
2018-03-27T01:22:22.546Z,9.70
2018-03-27T01:24:50.201Z,11.10
2018-03-27T01:27:17.714Z,12.53
2018-03-27T01:29:45.275Z,10.67
2018-03-27T01:32:12.784Z,10.30
2018-03-27T01:34:40.420Z,9.20
2018-03-27T01:37:07.928Z,8.30
2018-03-27T01:39:35.456Z,9.10
2018-03-27T01:42:02.973Z,8.20
2018-03-27T01:44:30.711Z,9.07
2018-03-27T01:46:58.226Z,8.10
2018-03-27T01:49:25.748Z,9.33
2018-03-27T01:51:53.254Z,8.83
2018-03-27T01:54:20.748Z,8.83
2018-03-27T01:56:48.281Z,10.13
2018-03-27T01:59:15.780Z,8.40
2018-03-27T02:01:43.392Z,8.43
2018-03-27T02:04:10.916Z,7.60
2018-03-27T02:06:38.452Z,9.37
2018-03-27T02:09:05.953Z,9.53
2018-03-27T02:11:39.146Z,8.77
2018-03-27T02:14:12.387Z,8.90
2018-03-27T02:16:46.280Z,8.57
2018-03-27T02:19:19.380Z,8.57
2018-03-27T02:21:46.404Z,8.80
2018-03-27T02:24:17.224Z,9.63
2018-03-27T02:26:44.736Z,10.63
2018-03-27T02:29:13.017Z,10.83
2018-03-27T02:31:41.289Z,9.70
2018-03-27T02:34:09.643Z,9.07
2018-03-27T02:36:37.153Z,10.47
2018-03-27T02:39:04.670Z,8.17
2018-03-27T02:41:32.180Z,9.27
2018-03-27T02:43:59.769Z,10.97
2018-03-27T02:46:27.294Z,9.83
2018-03-27T02:48:54.817Z,9.90
2018-03-27T02:51:22.359Z,11.40
2018-03-27T02:53:49.871Z,9.33
2018-03-27T02:56:17.371Z,10.30
2018-03-27T02:58:44.948Z,11.40
2018-03-27T03:01:13.205Z,10.03
2018-03-27T03:03:40.762Z,10.33
2018-03-27T03:06:08.280Z,10.17
2018-03-27T03:08:35.777Z,10.77
2018-03-27T03:11:03.292Z,11.77
2018-03-27T03:13:30.804Z,13.70
2018-03-27T03:15:58.349Z,10.50
2018-03-27T03:18:25.864Z,12.87
2018-03-27T03:20:53.468Z,11.23
2018-03-27T03:23:20.981Z,12.60
2018-03-27T03:25:48.491Z,13.10
2018-03-27T03:28:16.116Z,12.80
2018-03-27T03:30:44.335Z,14.77
2018-03-27T03:33:12.612Z,19.57
2018-03-27T03:35:40.893Z,16.43
2018-03-27T03:38:09.169Z,19.17
2018-03-27T03:40:37.449Z,18.10
2018-03-27T03:43:05.719Z,21.57
2018-03-27T03:45:34.017Z,18.60
2018-03-27T03:48:01.566Z,20.77
2018-03-27T03:50:29.055Z,22.93
2018-03-27T03:52:56.552Z,22.27
2018-03-27T03:55:24.068Z,20.07
2018-03-27T03:57:51.585Z,24.17
2018-03-27T04:00:19.114Z,18.73
2018-03-27T04:02:46.805Z,21.23
2018-03-27T04:05:15.083Z,21.00
2018-03-27T04:07:43.360Z,19.63
2018-03-27T04:10:11.628Z,23.77
2018-03-27T04:12:40.050Z,20.87
2018-03-27T04:15:07.642Z,21.07
2018-03-27T04:17:35.155Z,22.03
2018-03-27T04:20:02.659Z,26.23
2018-03-27T04:22:30.349Z,19.33
2018-03-27T04:24:57.950Z,19.07
2018-03-27T04:27:25.581Z,17.73
2018-03-27T04:29:53.096Z,16.23
2018-03-27T04:32:20.616Z,17.40
2018-03-27T04:34:48.139Z,15.47
2018-03-27T04:37:15.668Z,12.67
2018-03-27T04:39:43.199Z,15.23
2018-03-27T04:42:10.710Z,15.60
2018-03-27T04:44:38.231Z,17.77
2018-03-27T04:47:05.734Z,18.63
2018-03-27T04:49:34.026Z,19.90
2018-03-27T04:52:01.551Z,19.87
2018-03-27T04:54:29.079Z,18.60
2018-03-27T04:56:56.800Z,15.50
2018-03-27T04:59:25.075Z,16.47
2018-03-27T05:01:52.596Z,19.10
2018-03-27T05:04:20.103Z,18.60
2018-03-27T05:06:47.634Z,17.83
2018-03-27T05:09:15.134Z,17.83
2018-03-27T05:11:42.682Z,15.57
2018-03-27T05:14:10.187Z,18.03
2018-03-27T05:16:37.690Z,19.07
2018-03-27T05:19:05.226Z,19.17
2018-03-27T05:21:33.617Z,17.87
2018-03-27T05:24:01.148Z,22.10
2018-03-27T05:26:28.729Z,20.37
2018-03-27T05:28:56.196Z,17.17
2018-03-27T05:31:23.703Z,20.83
2018-03-27T05:33:51.315Z,20.93
2018-03-27T05:36:18.862Z,22.30
2018-03-27T05:38:47.154Z,25.63
2018-03-27T05:41:15.512Z,20.87
2018-03-27T05:43:43.075Z,19.97
2018-03-27T05:46:11.347Z,22.37
2018-03-27T05:48:39.829Z,23.03
2018-03-27T05:51:08.121Z,21.63
2018-03-27T05:53:35.622Z,20.37
2018-03-27T05:56:03.394Z,21.73
2018-03-27T05:58:30.856Z,21.43
2018-03-27T06:00:58.464Z,26.03
2018-03-27T06:03:26.004Z,25.93
2018-03-27T06:05:54.275Z,24.83
2018-03-27T06:08:22.546Z,25.20
2018-03-27T06:10:50.047Z,26.67
2018-03-27T06:13:17.540Z,23.57
2018-03-27T06:15:45.084Z,23.97
2018-03-27T06:18:12.605Z,23.97
2018-03-27T06:20:40.120Z,22.53
2018-03-27T06:23:07.698Z,24.87
2018-03-27T06:25:35.982Z,22.60
2018-03-27T06:28:04.234Z,22.40
2018-03-27T06:30:31.748Z,22.77
2018-03-27T06:32:59.284Z,24.10
2018-03-27T06:35:26.812Z,30.13
2018-03-27T06:37:54.306Z,23.33
2018-03-27T06:40:21.815Z,22.17
2018-03-27T06:42:49.369Z,20.30
2018-03-27T06:45:16.894Z,21.73
2018-03-27T06:47:44.428Z,20.40
2018-03-27T06:50:11.944Z,22.33
2018-03-27T06:52:39.469Z,33.60
2018-03-27T06:55:06.998Z,31.70
2018-03-27T06:57:34.501Z,24.47
2018-03-27T07:00:02.015Z,22.73
2018-03-27T07:02:29.543Z,21.50
2018-03-27T07:04:57.049Z,23.10
2018-03-27T07:07:24.549Z,23.63
2018-03-27T07:09:52.054Z,26.33
2018-03-27T07:12:19.576Z,26.57
2018-03-27T07:14:47.066Z,25.23
2018-03-27T07:17:15.352Z,23.83
2018-03-27T07:19:42.890Z,25.43
2018-03-27T07:22:10.400Z,26.93
2018-03-27T07:24:37.917Z,26.27
2018-03-27T07:27:06.196Z,25.07
2018-03-27T07:29:34.717Z,31.93
2018-03-27T07:32:02.227Z,29.70
2018-03-27T07:34:29.727Z,28.43
2018-03-27T07:36:57.229Z,27.53
2018-03-27T07:39:24.756Z,28.93
2018-03-27T07:41:52.810Z,27.00
2018-03-27T07:44:20.321Z,26.47
2018-03-27T07:46:47.846Z,28.77
2018-03-27T07:49:16.122Z,28.33
2018-03-27T07:51:43.627Z,30.27
2018-03-27T07:54:12.000Z,28.67
2018-03-27T07:56:40.282Z,28.20
2018-03-27T07:59:07.799Z,32.07
2018-03-27T08:01:35.303Z,36.70
2018-03-27T08:04:03.583Z,30.80
2018-03-27T08:06:31.092Z,29.57
2018-03-27T08:08:58.634Z,29.67
2018-03-27T08:11:26.135Z,31.20
2018-03-27T08:13:54.404Z,32.97
2018-03-27T08:16:21.951Z,33.40
2018-03-27T08:18:49.462Z,32.30
2018-03-27T08:21:16.968Z,33.10
2018-03-27T08:23:44.507Z,36.90
2018-03-27T08:26:12.045Z,31.03
2018-03-27T08:28:39.548Z,30.67
2018-03-27T08:31:07.056Z,31.30
2018-03-27T08:33:34.565Z,33.53
2018-03-27T08:36:02.062Z,34.17
2018-03-27T08:38:29.571Z,31.60
2018-03-27T08:40:57.087Z,35.03
2018-03-27T08:43:24.602Z,32.27
2018-03-27T08:45:52.125Z,32.80
2018-03-27T08:48:20.426Z,38.77
2018-03-27T08:50:47.943Z,35.33
2018-03-27T08:53:15.458Z,34.73
2018-03-27T08:55:43.748Z,32.57
2018-03-27T08:58:11.278Z,29.33
2018-03-27T09:00:38.818Z,31.20
2018-03-27T09:03:06.332Z,32.10
2018-03-27T09:05:33.860Z,40.53
2018-03-27T09:08:02.142Z,26.20
2018-03-27T09:10:30.414Z,22.90
2018-03-27T09:12:58.791Z,25.97
2018-03-27T09:15:26.326Z,25.27
2018-03-27T09:17:53.855Z,19.57
2018-03-27T09:20:21.374Z,20.20
2018-03-27T09:22:48.877Z,22.37
2018-03-27T09:25:16.401Z,17.70
2018-03-27T09:27:44.678Z,19.83
2018-03-27T09:30:12.973Z,17.87
2018-03-27T09:32:40.494Z,16.60
2018-03-27T09:35:08.803Z,17.57
2018-03-27T09:37:36.326Z,15.20
2018-03-27T09:40:03.829Z,16.93
2018-03-27T09:42:31.340Z,22.80
2018-03-27T09:44:58.959Z,15.30
2018-03-27T09:47:26.485Z,15.10
2018-03-27T09:49:54.012Z,16.70
2018-03-27T09:52:21.524Z,14.43
2018-03-27T09:54:49.047Z,18.57
2018-03-27T09:57:16.560Z,17.60
2018-03-27T09:59:44.075Z,17.50
2018-03-27T10:02:11.583Z,14.73
2018-03-27T10:04:39.095Z,12.60
2018-03-27T10:07:06.633Z,14.00
2018-03-27T10:09:34.153Z,12.00
2018-03-27T10:12:01.740Z,14.80
2018-03-27T10:14:29.276Z,16.37
2018-03-27T10:16:56.811Z,16.53
2018-03-27T10:19:24.312Z,14.13
2018-03-27T10:21:51.818Z,12.47
2018-03-27T10:24:19.325Z,12.97
2018-03-27T10:26:46.848Z,15.07
2018-03-27T10:29:14.364Z,12.40
2018-03-27T10:31:42.659Z,14.13
2018-03-27T10:34:10.167Z,12.77
2018-03-27T10:36:37.722Z,12.47
2018-03-27T10:39:05.244Z,14.97
2018-03-27T10:41:32.767Z,17.67
2018-03-27T10:44:01.049Z,11.43
2018-03-27T10:46:29.365Z,14.30
2018-03-27T10:48:56.885Z,15.00
2018-03-27T10:51:25.185Z,12.07
2018-03-27T10:53:52.692Z,13.93
2018-03-27T10:56:20.216Z,13.67
2018-03-27T10:58:47.739Z,13.87
2018-03-27T11:01:16.036Z,14.60
2018-03-27T11:03:43.575Z,13.77
2018-03-27T11:06:11.158Z,11.40
2018-03-27T11:08:38.671Z,13.70
2018-03-27T11:11:06.188Z,11.90
2018-03-27T11:13:33.795Z,13.30
2018-03-27T11:16:01.383Z,12.20
2018-03-27T11:18:28.922Z,13.87
2018-03-27T11:20:57.355Z,13.37
2018-03-27T11:23:24.865Z,12.53
2018-03-27T11:25:52.396Z,13.37
2018-03-27T11:28:19.931Z,13.00
2018-03-27T11:30:47.441Z,14.27
2018-03-27T11:33:14.951Z,14.77
2018-03-27T11:35:42.447Z,11.23
2018-03-27T11:38:10.754Z,13.07
2018-03-27T11:40:38.309Z,12.00
2018-03-27T11:43:05.960Z,11.77
2018-03-27T11:45:33.514Z,13.30
2018-03-27T11:48:01.039Z,13.83
2018-03-27T11:50:30.102Z,11.67
2018-03-27T11:52:57.620Z,12.37
2018-03-27T11:55:25.135Z,12.60
2018-03-27T11:57:52.746Z,12.93
2018-03-27T12:00:20.254Z,12.47
2018-03-27T12:02:47.815Z,12.33
2018-03-27T12:05:15.346Z,12.63
2018-03-27T12:07:42.861Z,13.40
2018-03-27T12:10:11.171Z,11.83
2018-03-27T12:12:38.712Z,12.60
2018-03-27T12:15:06.286Z,12.93
2018-03-27T12:17:33.791Z,12.03
2018-03-27T12:20:01.311Z,13.90
2018-03-27T12:22:28.824Z,12.73
2018-03-27T12:24:57.115Z,12.83
2018-03-27T12:27:25.405Z,13.97
2018-03-27T12:29:52.980Z,10.90
2018-03-27T12:32:20.522Z,11.93
2018-03-27T12:34:48.164Z,11.90
2018-03-27T12:37:16.444Z,12.93
2018-03-27T12:39:44.726Z,12.63
2018-03-27T12:42:13.034Z,11.40
2018-03-27T12:44:40.544Z,12.23
2018-03-27T12:47:08.048Z,13.37
2018-03-27T12:49:35.560Z,12.30
2018-03-27T12:52:03.841Z,12.57
2018-03-27T12:54:32.134Z,12.13
2018-03-27T12:56:59.913Z,12.80
2018-03-27T12:59:27.427Z,11.67
2018-03-27T13:01:54.994Z,12.27
2018-03-27T13:04:23.272Z,13.43
2018-03-27T13:06:50.795Z,14.00
2018-03-27T13:09:18.343Z,14.00
2018-03-27T13:11:45.865Z,14.77
2018-03-27T13:14:13.406Z,15.77
2018-03-27T13:16:41.680Z,12.27
2018-03-27T13:19:09.959Z,16.00
2018-03-27T13:21:38.256Z,14.77
2018-03-27T13:24:05.773Z,14.73
2018-03-27T13:26:33.305Z,14.43
2018-03-27T13:29:00.812Z,15.77
2018-03-27T13:31:29.092Z,15.47
2018-03-27T13:33:57.367Z,16.67
2018-03-27T13:36:25.651Z,17.50
2018-03-27T13:38:54.000Z,14.57
2018-03-27T13:41:21.539Z,14.33
2018-03-27T13:43:49.037Z,13.80
2018-03-27T13:46:17.338Z,13.93
2018-03-27T13:48:44.869Z,14.50
2018-03-27T13:51:12.391Z,13.57
2018-03-27T13:53:39.903Z,15.80
2018-03-27T13:56:07.426Z,14.33
2018-03-27T13:58:34.928Z,13.97
2018-03-27T14:01:02.452Z,14.67
2018-03-27T14:03:30.730Z,13.20
2018-03-27T14:05:59.048Z,13.33
2018-03-27T14:08:26.570Z,14.13
2018-03-27T14:10:54.090Z,15.53
2018-03-27T14:13:21.682Z,13.37
2018-03-27T14:15:49.985Z,13.47
2018-03-27T14:18:17.513Z,13.23
2018-03-27T14:20:45.786Z,14.80
2018-03-27T14:23:13.314Z,15.40
2018-03-27T14:25:40.921Z,14.03
2018-03-27T14:28:09.218Z,13.53
2018-03-27T14:30:36.858Z,13.90
2018-03-27T14:33:04.355Z,13.70
2018-03-27T14:35:31.872Z,14.10
2018-03-27T14:37:59.395Z,15.03
2018-03-27T14:40:26.911Z,13.13
2018-03-27T14:42:54.431Z,13.40
2018-03-27T14:45:21.957Z,14.07
2018-03-27T14:47:49.499Z,14.37
2018-03-27T14:50:17.148Z,14.90
2018-03-27T14:52:44.674Z,13.37
2018-03-27T14:55:12.197Z,13.40
2018-03-27T14:57:39.726Z,14.13
2018-03-27T15:00:07.268Z,14.63
2018-03-27T15:02:34.789Z,14.67
2018-03-27T15:05:02.335Z,15.37
2018-03-27T15:07:29.875Z,14.10
2018-03-27T15:09:57.404Z,13.80
2018-03-27T15:12:24.946Z,13.37
2018-03-27T15:14:52.467Z,13.53
2018-03-27T15:17:19.971Z,13.60
2018-03-27T15:19:48.260Z,15.30
2018-03-27T15:22:15.779Z,13.67
2018-03-27T15:24:43.288Z,13.33
2018-03-27T15:27:10.838Z,15.77
2018-03-27T15:29:38.445Z,14.30
2018-03-27T15:32:05.968Z,13.83
2018-03-27T15:34:33.484Z,12.90
2018-03-27T15:37:01.751Z,13.97
2018-03-27T15:39:29.279Z,13.27
2018-03-27T15:41:56.817Z,13.20
2018-03-27T15:44:24.376Z,13.63
2018-03-27T15:46:51.897Z,14.77
2018-03-27T15:49:20.166Z,13.67
2018-03-27T15:51:48.451Z,14.90
2018-03-27T15:54:16.742Z,13.13
2018-03-27T15:56:44.298Z,15.37
2018-03-27T15:59:11.820Z,13.07
2018-03-27T16:01:39.335Z,13.27
2018-03-27T16:04:06.875Z,15.40
2018-03-27T16:06:34.400Z,13.67
2018-03-27T16:09:01.913Z,13.57
2018-03-27T16:11:29.445Z,12.70
2018-03-27T16:13:56.972Z,14.83
2018-03-27T16:16:24.525Z,13.13
2018-03-27T16:18:52.045Z,14.40
2018-03-27T16:21:19.556Z,13.50
2018-03-27T16:23:47.874Z,14.00
2018-03-27T16:26:15.387Z,13.90
2018-03-27T16:28:42.910Z,13.97
2018-03-27T16:31:10.410Z,15.13
2018-03-27T16:33:38.011Z,13.73
2018-03-27T16:36:06.317Z,12.90
2018-03-27T16:38:33.850Z,14.13
2018-03-27T16:41:01.378Z,13.60
2018-03-27T16:43:28.893Z,13.73
2018-03-27T16:45:56.425Z,14.20
2018-03-27T16:48:23.940Z,13.97
2018-03-27T16:50:51.467Z,13.50
2018-03-27T16:53:18.988Z,13.70
2018-03-27T16:55:46.508Z,13.97
2018-03-27T16:58:14.068Z,13.60
2018-03-27T17:00:42.383Z,13.73
2018-03-27T17:03:09.910Z,14.10
2018-03-27T17:05:37.408Z,13.03
2018-03-27T17:08:04.948Z,12.97
2018-03-27T17:10:32.468Z,12.97
2018-03-27T17:12:59.985Z,13.33
2018-03-27T17:15:27.487Z,13.07
2018-03-27T17:17:55.006Z,14.87
2018-03-27T17:20:22.529Z,13.57
2018-03-27T17:22:50.043Z,12.67
2018-03-27T17:25:17.568Z,13.13
2018-03-27T17:27:45.100Z,14.13
2018-03-27T17:30:12.660Z,11.80
2018-03-27T17:32:41.058Z,15.67
2018-03-27T17:35:08.583Z,13.67
2018-03-27T17:37:36.154Z,14.10
2018-03-27T17:40:03.845Z,18.07
2018-03-27T17:42:31.525Z,16.87
2018-03-27T17:44:59.059Z,13.80
2018-03-27T17:47:26.596Z,11.83
2018-03-27T17:49:54.164Z,11.37
2018-03-27T17:52:21.703Z,11.60
2018-03-27T17:54:49.983Z,12.57
2018-03-27T17:57:18.277Z,13.60
2018-03-27T17:59:45.878Z,13.63
2018-03-27T18:02:13.333Z,14.93
2018-03-27T18:04:40.851Z,13.50
2018-03-27T18:07:08.389Z,13.17
2018-03-27T18:09:35.896Z,14.20
2018-03-27T18:12:03.524Z,14.57
2018-03-27T18:14:31.037Z,12.60
2018-03-27T18:16:58.602Z,15.33
2018-03-27T18:19:26.219Z,14.40
2018-03-27T18:21:53.748Z,13.47
2018-03-27T18:24:21.485Z,14.83
2018-03-27T18:26:49.000Z,14.93
2018-03-27T18:29:16.644Z,15.23
2018-03-27T18:31:44.303Z,16.47
2018-03-27T18:34:11.831Z,15.63
2018-03-27T18:36:40.248Z,16.57
2018-03-27T18:39:08.025Z,17.57
2018-03-27T18:41:35.566Z,17.20
2018-03-27T18:44:03.124Z,19.23
2018-03-27T18:46:30.682Z,17.23
2018-03-27T18:48:58.301Z,15.53
2018-03-27T18:51:26.713Z,19.90
2018-03-27T18:53:54.261Z,17.47
2018-03-27T18:56:22.566Z,18.53
2018-03-27T18:58:50.105Z,19.93
2018-03-27T19:01:17.860Z,18.40
2018-03-27T19:03:46.171Z,16.93
2018-03-27T19:06:13.747Z,17.97
2018-03-27T19:08:41.287Z,17.00
2018-03-27T19:11:08.835Z,18.07
2018-03-27T19:13:36.405Z,19.90
2018-03-27T19:16:04.243Z,18.07
2018-03-27T19:18:32.652Z,18.10
2018-03-27T19:21:00.242Z,19.80
2018-03-27T19:23:27.792Z,21.27
2018-03-27T19:25:55.493Z,22.03
2018-03-27T19:28:23.807Z,21.13
2018-03-27T19:30:51.368Z,20.83
2018-03-27T19:33:18.978Z,20.03
2018-03-27T19:35:47.307Z,21.77
2018-03-27T19:38:14.879Z,24.33
2018-03-27T19:40:42.451Z,21.63
2018-03-27T19:43:10.029Z,21.40
2018-03-27T19:45:38.385Z,22.53
2018-03-27T19:48:06.039Z,22.37
2018-03-27T19:50:33.610Z,23.97
2018-03-27T19:53:01.161Z,22.33
2018-03-27T19:55:29.499Z,22.73
2018-03-27T19:57:57.048Z,22.97
2018-03-27T20:00:24.830Z,24.53
2018-03-27T20:02:53.230Z,25.50
2018-03-27T20:05:20.893Z,23.97
2018-03-27T20:07:48.652Z,24.47
2018-03-27T20:10:16.237Z,26.83
2018-03-27T20:12:43.864Z,22.53
2018-03-27T20:15:11.446Z,22.83
2018-03-27T20:17:39.254Z,22.73
2018-03-27T20:20:07.581Z,24.07
2018-03-27T20:22:35.138Z,27.90
2018-03-27T20:25:02.748Z,24.70
2018-03-27T20:27:31.066Z,23.03
2018-03-27T20:29:58.652Z,24.70
2018-03-27T20:32:26.226Z,24.53
2018-03-27T20:34:53.805Z,24.57
2018-03-27T20:37:21.865Z,23.37
2018-03-27T20:39:49.474Z,24.67
2018-03-27T20:42:17.000Z,27.50
2018-03-27T20:44:44.543Z,27.47
2018-03-27T20:47:12.812Z,28.00
2018-03-27T20:49:40.373Z,24.97
2018-03-27T20:52:07.990Z,22.80
2018-03-27T20:54:35.544Z,25.07
2018-03-27T20:57:03.123Z,21.10
2018-03-27T20:59:30.678Z,22.87
2018-03-27T21:01:58.283Z,22.90
2018-03-27T21:04:25.870Z,23.40
2018-03-27T21:06:53.546Z,22.30
2018-03-27T21:09:21.628Z,25.10
2018-03-27T21:11:49.218Z,24.17
2018-03-27T21:14:16.767Z,24.80
2018-03-27T21:16:44.328Z,27.30
2018-03-27T21:19:11.874Z,25.20
2018-03-27T21:21:39.421Z,28.13
2018-03-27T21:24:06.961Z,24.93
2018-03-27T21:26:34.494Z,24.87
2018-03-27T21:29:02.032Z,25.30
2018-03-27T21:31:29.580Z,25.93
2018-03-27T21:33:57.120Z,24.90
2018-03-27T21:36:24.679Z,25.37
2018-03-27T21:38:52.217Z,23.97
2018-03-27T21:41:19.760Z,23.80
2018-03-27T21:43:47.301Z,22.60
2018-03-27T21:46:15.644Z,24.70
2018-03-27T21:48:43.191Z,21.83
2018-03-27T21:51:10.733Z,23.57
2018-03-27T21:53:38.276Z,23.57
2018-03-27T21:56:05.800Z,22.07
2018-03-27T21:58:33.329Z,21.13
2018-03-27T22:01:00.913Z,21.23
2018-03-27T22:03:40.147Z,24.33
2018-03-27T22:06:07.667Z,23.73
2018-03-27T22:08:35.201Z,24.03
2018-03-27T22:11:02.717Z,22.17
2018-03-27T22:13:30.249Z,24.13
2018-03-27T22:15:57.758Z,24.27
2018-03-27T22:18:25.465Z,23.93
2018-03-27T22:20:53.027Z,26.00
2018-03-27T22:23:20.537Z,20.43
2018-03-27T22:25:48.236Z,21.33
2018-03-27T22:28:15.763Z,22.83
2018-03-27T22:30:44.178Z,24.17
2018-03-27T22:33:11.811Z,21.53
2018-03-27T22:35:39.470Z,23.10
2018-03-27T22:38:07.013Z,21.60
2018-03-27T22:40:35.302Z,22.90
2018-03-27T22:43:03.584Z,21.87
2018-03-27T22:45:31.097Z,19.70
2018-03-27T22:47:58.603Z,19.80
2018-03-27T22:50:26.121Z,20.23
2018-03-27T22:52:53.740Z,22.60
2018-03-27T22:55:21.267Z,22.47
2018-03-27T22:57:49.548Z,20.60
2018-03-27T23:00:17.838Z,21.43
2018-03-27T23:02:45.352Z,22.13
2018-03-27T23:05:12.872Z,21.43
2018-03-27T23:07:40.394Z,19.10
2018-03-27T23:10:08.695Z,22.17
2018-03-27T23:12:36.206Z,25.03
2018-03-27T23:15:03.739Z,21.03
2018-03-27T23:17:31.357Z,22.70
2018-03-27T23:19:58.917Z,20.33
2018-03-27T23:22:31.394Z,21.97
2018-03-27T23:24:58.968Z,21.23
2018-03-27T23:27:26.475Z,20.87
2018-03-27T23:29:53.980Z,21.90
2018-03-27T23:32:21.482Z,22.77
2018-03-27T23:34:48.997Z,19.23
2018-03-27T23:37:16.511Z,21.73
2018-03-27T23:39:44.045Z,22.20
2018-03-27T23:42:11.567Z,22.83
2018-03-27T23:44:39.093Z,20.00
2018-03-27T23:47:06.620Z,23.50
2018-03-27T23:49:34.204Z,20.50
2018-03-27T23:52:01.758Z,21.33
2018-03-27T23:54:29.276Z,19.17
2018-03-27T23:56:56.770Z,21.13
2018-03-27T23:59:24.287Z,19.00
